EDW127 ENGM-EDDH
Flight info
| Callsign | EDW127 |
|---|---|
| Flight time | N/A |
| Altitude | 39000 |
| Route | VIPPA DCT AAL DCT LUTUS/N0480F400 P615 ALS M852 ALASA/N0486F410 M852 EKERN T905 BOGMU BOGMU5A |
| Aircraft | A388/J-SADE2E3FGHIJ3J4J5M1RWXY/LB1D1 |
Departure
| Time | 2026-05-07 18:14 |
|---|---|
| Airport | Oslo-Gardermoen International Airport (ENGM) |
Arrival
| Time | N/A |
|---|---|
| Airport | Hamburg Helmut Schmidt Airport (EDDH) |
| Time | Latitude | Longitude | Altitude | Speed | Heading |
|---|---|---|---|---|---|
| 2026-05-07 17:47 | 60.19369 | 11.08564 | 677 ft | 0 kts | 103° |
| 2026-05-07 18:04 | 60.19370 | 11.08554 | 677 ft | 2 kts | 102° |
| 2026-05-07 18:05 | 60.19372 | 11.08521 | 676 ft | 2 kts | 96° |
| 2026-05-07 18:05 | 60.19371 | 11.08488 | 672 ft | 2 kts | 85° |
| 2026-05-07 18:05 | 60.19366 | 11.08456 | 673 ft | 2 kts | 65° |
| 2026-05-07 18:05 | 60.19355 | 11.08432 | 671 ft | 2 kts | 41° |
| 2026-05-07 18:06 | 60.19341 | 11.08417 | 672 ft | 2 kts | 24° |
| 2026-05-07 18:06 | 60.19335 | 11.08413 | 673 ft | 0 kts | 20° |
| 2026-05-07 18:08 | 60.19348 | 11.08423 | 671 ft | 5 kts | 20° |
| 2026-05-07 18:08 | 60.19395 | 11.08455 | 673 ft | 9 kts | 17° |
| 2026-05-07 18:08 | 60.19458 | 11.08493 | 678 ft | 10 kts | 17° |
| 2026-05-07 18:09 | 60.19543 | 11.08544 | 678 ft | 16 kts | 16° |
| 2026-05-07 18:09 | 60.19673 | 11.08613 | 677 ft | 22 kts | 13° |
| 2026-05-07 18:09 | 60.19840 | 11.08698 | 676 ft | 27 kts | 14° |
| 2026-05-07 18:09 | 60.20039 | 11.08811 | 676 ft | 34 kts | 17° |
| 2026-05-07 18:10 | 60.20311 | 11.08977 | 678 ft | 46 kts | 17° |
| 2026-05-07 18:10 | 60.20608 | 11.09160 | 683 ft | 41 kts | 17° |
| 2026-05-07 18:10 | 60.20865 | 11.09308 | 682 ft | 36 kts | 15° |
| 2026-05-07 18:10 | 60.21097 | 11.09433 | 684 ft | 33 kts | 15° |
| 2026-05-07 18:11 | 60.21310 | 11.09549 | 683 ft | 28 kts | 15° |
| 2026-05-07 18:11 | 60.21421 | 11.09609 | 686 ft | 10 kts | 13° |
| 2026-05-07 18:11 | 60.21511 | 11.09599 | 686 ft | 10 kts | 324° |
| 2026-05-07 18:11 | 60.21520 | 11.09584 | 682 ft | 0 kts | 317° |
| 2026-05-07 18:12 | 60.21533 | 11.09561 | 682 ft | 4 kts | 315° |
| 2026-05-07 18:12 | 60.21555 | 11.09486 | 683 ft | 9 kts | 296° |
| 2026-05-07 18:13 | 60.21575 | 11.09349 | 685 ft | 12 kts | 277° |
| 2026-05-07 18:13 | 60.21566 | 11.09175 | 682 ft | 11 kts | 238° |
| 2026-05-07 18:13 | 60.21493 | 11.09084 | 683 ft | 14 kts | 207° |
| 2026-05-07 18:13 | 60.21380 | 11.09009 | 687 ft | 30 kts | 193° |
| 2026-05-07 18:14 | 60.20833 | 11.08715 | 680 ft | 129 kts | 196° |
| 2026-05-07 18:14 | 60.19785 | 11.08093 | 937 ft | 169 kts | 196° |
| 2026-05-07 18:14 | 60.18674 | 11.07510 | 1777 ft | 165 kts | 195° |
| 2026-05-07 18:14 | 60.17517 | 11.06947 | 2574 ft | 175 kts | 194° |
| 2026-05-07 18:15 | 60.16420 | 11.06444 | 3358 ft | 180 kts | 194° |
| 2026-05-07 18:15 | 60.15156 | 11.05610 | 4096 ft | 194 kts | 212° |
| 2026-05-07 18:15 | 60.14205 | 11.03576 | 4672 ft | 212 kts | 246° |
| 2026-05-07 18:15 | 60.13913 | 11.00579 | 5263 ft | 231 kts | 268° |
| 2026-05-07 18:16 | 60.13846 | 10.97212 | 5795 ft | 253 kts | 264° |
| 2026-05-07 18:16 | 60.13517 | 10.93610 | 6406 ft | 269 kts | 255° |
| 2026-05-07 18:16 | 60.12908 | 10.90055 | 7304 ft | 273 kts | 249° |
| 2026-05-07 18:16 | 60.12150 | 10.86516 | 8184 ft | 277 kts | 246° |
| 2026-05-07 18:17 | 60.11336 | 10.82998 | 9097 ft | 280 kts | 245° |
| 2026-05-07 18:17 | 60.10500 | 10.79442 | 9936 ft | 284 kts | 245° |
| 2026-05-07 18:17 | 60.09637 | 10.75768 | 10486 ft | 301 kts | 245° |
| 2026-05-07 18:17 | 60.08715 | 10.71845 | 10736 ft | 323 kts | 243° |
| 2026-05-07 18:18 | 60.07303 | 10.68199 | 11144 ft | 339 kts | 220° |
| 2026-05-07 18:18 | 60.05999 | 10.66498 | 11640 ft | 342 kts | 206° |
| 2026-05-07 18:18 | 60.05633 | 10.66169 | 11764 ft | 342 kts | 202° |
| 2026-05-07 18:18 | 60.04379 | 10.65418 | 12183 ft | 345 kts | 192° |
| 2026-05-07 18:19 | 60.01977 | 10.64815 | 12875 ft | 349 kts | 186° |
| 2026-05-07 18:19 | 59.99605 | 10.64369 | 13590 ft | 352 kts | 187° |
| 2026-05-07 18:19 | 59.97152 | 10.63722 | 14292 ft | 356 kts | 189° |
| 2026-05-07 18:19 | 59.94698 | 10.62885 | 14988 ft | 359 kts | 191° |
| 2026-05-07 18:20 | 59.92232 | 10.61930 | 15648 ft | 362 kts | 192° |
| 2026-05-07 18:20 | 59.89791 | 10.60937 | 16290 ft | 366 kts | 192° |
| 2026-05-07 18:20 | 59.87281 | 10.59901 | 16914 ft | 369 kts | 192° |
| 2026-05-07 18:20 | 59.84749 | 10.58858 | 17527 ft | 373 kts | 192° |
| 2026-05-07 18:21 | 59.82196 | 10.57811 | 18112 ft | 376 kts | 192° |
| 2026-05-07 18:21 | 59.79618 | 10.56757 | 18681 ft | 379 kts | 192° |
| 2026-05-07 18:21 | 59.77028 | 10.55702 | 19236 ft | 383 kts | 192° |
| 2026-05-07 18:21 | 59.74406 | 10.54637 | 19782 ft | 386 kts | 192° |
| 2026-05-07 18:22 | 59.71768 | 10.53566 | 20308 ft | 389 kts | 192° |
| 2026-05-07 18:22 | 59.70005 | 10.52852 | 20642 ft | 391 kts | 192° |
| 2026-05-07 18:22 | 59.66419 | 10.51402 | 21312 ft | 396 kts | 192° |
| 2026-05-07 18:22 | 59.63826 | 10.50355 | 21775 ft | 399 kts | 192° |
| 2026-05-07 18:23 | 59.61095 | 10.49253 | 22253 ft | 402 kts | 192° |
| 2026-05-07 18:23 | 59.58345 | 10.48146 | 22750 ft | 404 kts | 192° |
| 2026-05-07 18:23 | 59.55573 | 10.47033 | 23214 ft | 407 kts | 192° |
| 2026-05-07 18:23 | 59.52821 | 10.45929 | 23690 ft | 410 kts | 192° |
| 2026-05-07 18:24 | 59.50016 | 10.44805 | 24152 ft | 412 kts | 192° |
| 2026-05-07 18:24 | 59.47191 | 10.43676 | 24583 ft | 415 kts | 192° |
| 2026-05-07 18:24 | 59.44346 | 10.42541 | 25038 ft | 418 kts | 192° |
| 2026-05-07 18:24 | 59.41479 | 10.41399 | 25478 ft | 422 kts | 192° |
| 2026-05-07 18:25 | 59.38593 | 10.40251 | 25939 ft | 425 kts | 192° |
| 2026-05-07 18:25 | 59.35681 | 10.39095 | 26395 ft | 428 kts | 192° |
| 2026-05-07 18:25 | 59.32858 | 10.37977 | 26882 ft | 431 kts | 192° |
| 2026-05-07 18:25 | 59.29935 | 10.36820 | 27362 ft | 434 kts | 192° |
| 2026-05-07 18:26 | 59.26965 | 10.35647 | 27853 ft | 437 kts | 192° |
| 2026-05-07 18:26 | 59.23973 | 10.34467 | 28318 ft | 440 kts | 192° |
| 2026-05-07 18:26 | 59.20957 | 10.33280 | 28812 ft | 443 kts | 192° |
| 2026-05-07 18:26 | 59.17917 | 10.32086 | 29282 ft | 447 kts | 192° |
| 2026-05-07 18:27 | 59.14892 | 10.30900 | 29734 ft | 450 kts | 192° |
| 2026-05-07 18:27 | 59.11771 | 10.29678 | 30220 ft | 453 kts | 192° |
| 2026-05-07 18:27 | 59.08713 | 10.28483 | 30675 ft | 457 kts | 192° |
| 2026-05-07 18:27 | 59.06600 | 10.27648 | 30985 ft | 458 kts | 193° |
| 2026-05-07 18:28 | 59.02635 | 10.24790 | 31556 ft | 462 kts | 209° |
| 2026-05-07 18:28 | 58.99913 | 10.21436 | 31981 ft | 464 kts | 214° |
| 2026-05-07 18:28 | 58.97228 | 10.17915 | 32401 ft | 468 kts | 214° |
| 2026-05-07 18:28 | 58.94518 | 10.14371 | 32825 ft | 471 kts | 214° |
| 2026-05-07 18:29 | 58.91800 | 10.10820 | 33236 ft | 474 kts | 214° |
| 2026-05-07 18:29 | 58.89054 | 10.07237 | 33645 ft | 477 kts | 214° |
| 2026-05-07 18:29 | 58.86294 | 10.03640 | 34049 ft | 480 kts | 214° |
| 2026-05-07 18:29 | 58.83517 | 10.00027 | 34432 ft | 483 kts | 214° |
| 2026-05-07 18:30 | 58.81670 | 9.97625 | 34704 ft | 485 kts | 214° |
| 2026-05-07 18:30 | 58.78869 | 9.93989 | 35214 ft | 485 kts | 214° |
| 2026-05-07 18:30 | 58.77594 | 9.92334 | 35463 ft | 484 kts | 214° |
| 2026-05-07 18:30 | 58.75062 | 9.89064 | 35960 ft | 483 kts | 213° |
| 2026-05-07 18:31 | 58.72083 | 9.86090 | 36448 ft | 483 kts | 201° |
| 2026-05-07 18:31 | 58.68861 | 9.84304 | 36900 ft | 484 kts | 190° |
| 2026-05-07 18:31 | 58.65702 | 9.83768 | 37319 ft | 485 kts | 179° |
| 2026-05-07 18:31 | 58.62341 | 9.84361 | 37752 ft | 485 kts | 172° |
| 2026-05-07 18:32 | 58.59010 | 9.85353 | 38168 ft | 485 kts | 172° |
| 2026-05-07 18:32 | 58.55659 | 9.86172 | 38580 ft | 485 kts | 174° |
| 2026-05-07 18:32 | 58.52291 | 9.86749 | 38956 ft | 486 kts | 176° |
| 2026-05-07 18:33 | 58.45497 | 9.87511 | 38998 ft | 488 kts | 178° |
| 2026-05-07 18:33 | 58.38586 | 9.88135 | 39006 ft | 507 kts | 178° |
| 2026-05-07 18:34 | 58.31467 | 9.88782 | 38996 ft | 509 kts | 178° |
| 2026-05-07 18:34 | 58.24395 | 9.89430 | 39007 ft | 511 kts | 178° |
| 2026-05-07 18:35 | 58.17321 | 9.90078 | 39005 ft | 511 kts | 178° |
| 2026-05-07 18:35 | 58.10187 | 9.90728 | 39006 ft | 511 kts | 178° |
| 2026-05-07 18:36 | 58.03087 | 9.91372 | 39002 ft | 511 kts | 178° |
| 2026-05-07 18:36 | 57.95983 | 9.92014 | 38994 ft | 511 kts | 178° |
| 2026-05-07 18:37 | 57.88878 | 9.92654 | 38997 ft | 511 kts | 178° |
| 2026-05-07 18:37 | 57.81774 | 9.93291 | 38996 ft | 511 kts | 178° |
| 2026-05-07 18:38 | 57.74987 | 9.93897 | 39000 ft | 511 kts | 178° |
| 2026-05-07 18:38 | 57.71031 | 9.94250 | 39003 ft | 511 kts | 178° |
| 2026-05-07 18:39 | 57.64068 | 9.94868 | 39004 ft | 512 kts | 178° |
| 2026-05-07 18:39 | 57.56958 | 9.95497 | 39005 ft | 511 kts | 178° |
| 2026-05-07 18:40 | 57.49858 | 9.96123 | 39004 ft | 511 kts | 178° |
| 2026-05-07 18:40 | 57.42785 | 9.96483 | 38891 ft | 500 kts | 185° |
| 2026-05-07 18:40 | 57.39409 | 9.95399 | 38781 ft | 487 kts | 197° |
| 2026-05-07 18:41 | 57.36289 | 9.93192 | 38511 ft | 477 kts | 207° |